createdAt,value
2019-03-15T00:01:45.087Z,10.17
2019-03-15T00:04:11.281Z,10.53
2019-03-15T00:06:37.459Z,11.93
2019-03-15T00:09:06.089Z,6.67
2019-03-15T00:11:32.336Z,10.97
2019-03-15T00:14:00.335Z,10.13
2019-03-15T00:16:26.498Z,8.47
2019-03-15T00:18:52.814Z,11.23
2019-03-15T00:21:18.979Z,7.67
2019-03-15T00:23:45.083Z,10.90
2019-03-15T00:26:11.214Z,9.30
2019-03-15T00:28:37.407Z,11.87
2019-03-15T00:31:04.018Z,10.17
2019-03-15T00:33:30.172Z,8.97
2019-03-15T00:35:56.426Z,8.33
2019-03-15T00:38:22.620Z,10.60
2019-03-15T00:40:48.866Z,7.60
2019-03-15T00:43:15.074Z,9.50
2019-03-15T00:45:41.171Z,9.23
2019-03-15T00:48:07.437Z,8.90
2019-03-15T00:50:33.567Z,9.77
2019-03-15T00:52:59.902Z,12.90
2019-03-15T00:55:26.183Z,9.03
2019-03-15T00:57:52.444Z,8.60
2019-03-15T01:00:18.766Z,10.67
2019-03-15T01:02:45.101Z,9.80
2019-03-15T01:05:11.440Z,6.90
2019-03-15T01:07:37.555Z,10.47
2019-03-15T01:10:08.591Z,14.50
2019-03-15T01:12:34.928Z,9.47
2019-03-15T01:15:01.051Z,15.37
2019-03-15T01:17:27.236Z,8.43
2019-03-15T01:19:53.417Z,9.70
2019-03-15T01:22:19.536Z,10.73
2019-03-15T01:24:45.762Z,9.63
2019-03-15T01:27:11.873Z,8.10
2019-03-15T01:29:38.252Z,8.87
2019-03-15T01:32:04.343Z,9.23
2019-03-15T01:34:30.785Z,10.20
2019-03-15T01:36:56.939Z,11.73
2019-03-15T01:39:23.071Z,9.93
2019-03-15T01:41:49.181Z,9.60
2019-03-15T01:44:15.288Z,10.77
2019-03-15T01:46:44.018Z,8.77
2019-03-15T01:49:10.151Z,10.47
2019-03-15T01:51:36.262Z,7.13
2019-03-15T01:54:02.420Z,9.93
2019-03-15T01:56:28.535Z,5.83
2019-03-15T01:58:54.904Z,7.83
2019-03-15T02:01:21.176Z,9.03
2019-03-15T02:03:47.308Z,13.40
2019-03-15T02:06:13.434Z,9.47
2019-03-15T02:08:39.563Z,7.10
2019-03-15T02:11:05.675Z,6.53
2019-03-15T02:13:31.819Z,9.80
2019-03-15T02:15:59.843Z,6.80
2019-03-15T02:18:25.964Z,9.03
2019-03-15T02:20:52.084Z,7.43
2019-03-15T02:23:18.199Z,17.70
2019-03-15T02:25:46.531Z,10.73
2019-03-15T02:28:12.621Z,7.63
2019-03-15T02:30:38.865Z,7.53
2019-03-15T02:33:06.018Z,9.40
2019-03-15T02:35:32.599Z,7.93
2019-03-15T02:38:00.628Z,7.63
2019-03-15T02:40:26.792Z,7.00
2019-03-15T02:42:53.300Z,8.20
2019-03-15T02:45:19.688Z,6.10
2019-03-15T02:47:46.603Z,10.17
2019-03-15T02:50:13.068Z,10.10
2019-03-15T02:52:39.163Z,7.13
2019-03-15T02:55:08.556Z,10.77
2019-03-15T02:57:35.450Z,9.17
2019-03-15T03:00:04.616Z,6.27
2019-03-15T03:02:30.743Z,8.47
2019-03-15T03:04:56.862Z,10.90
2019-03-15T03:07:23.021Z,8.77
2019-03-15T03:09:49.134Z,7.83
2019-03-15T03:12:15.416Z,9.73
2019-03-15T03:14:41.594Z,8.17
2019-03-15T03:17:07.723Z,8.53
2019-03-15T03:19:33.856Z,7.37
2019-03-15T03:22:00.109Z,12.40
2019-03-15T03:24:26.289Z,4.37
2019-03-15T03:26:52.451Z,12.30
2019-03-15T03:29:19.990Z,8.00
2019-03-15T03:31:46.473Z,10.23
2019-03-15T03:34:13.044Z,9.53
2019-03-15T03:36:39.539Z,11.40
2019-03-15T03:39:06.351Z,9.10
2019-03-15T03:41:33.070Z,10.43
2019-03-15T03:43:59.177Z,7.63
2019-03-15T03:46:25.279Z,8.50
2019-03-15T03:48:51.427Z,11.43
2019-03-15T03:51:17.541Z,5.50
2019-03-15T03:53:43.682Z,8.20
2019-03-15T03:56:09.974Z,9.70
2019-03-15T03:58:36.298Z,7.70
2019-03-15T04:01:02.700Z,11.60
2019-03-15T04:03:29.034Z,9.30
2019-03-15T04:05:55.140Z,5.70
2019-03-15T04:08:21.270Z,10.67
2019-03-15T04:10:47.386Z,9.13
2019-03-15T04:13:13.511Z,8.67
2019-03-15T04:15:39.619Z,11.87
2019-03-15T04:18:06.734Z,8.60
2019-03-15T04:20:33.107Z,8.03
2019-03-15T04:22:59.248Z,12.50
2019-03-15T04:25:25.478Z,10.90
2019-03-15T04:27:51.612Z,10.40
2019-03-15T04:30:17.735Z,9.83
2019-03-15T04:32:43.835Z,10.63
2019-03-15T04:35:10.174Z,7.73
2019-03-15T04:37:36.270Z,12.53
2019-03-15T04:40:05.641Z,7.53
2019-03-15T04:42:31.839Z,6.83
2019-03-15T04:44:58.075Z,10.23
2019-03-15T04:47:24.183Z,10.27
2019-03-15T04:49:50.322Z,8.20
2019-03-15T04:52:16.522Z,8.10
2019-03-15T04:54:42.716Z,11.67
2019-03-15T04:57:08.931Z,9.77
2019-03-15T04:59:35.046Z,7.87
2019-03-15T05:02:01.254Z,10.50
2019-03-15T05:04:27.399Z,12.83
2019-03-15T05:06:53.550Z,9.03
2019-03-15T05:09:19.683Z,11.10
2019-03-15T05:11:45.927Z,10.57
2019-03-15T05:14:12.140Z,13.37
2019-03-15T05:16:38.384Z,10.73
2019-03-15T05:19:04.514Z,11.90
2019-03-15T05:21:30.683Z,9.27
2019-03-15T05:23:56.794Z,12.83
2019-03-15T05:26:22.905Z,20.77
2019-03-15T05:28:49.163Z,37.87
2019-03-15T05:31:15.402Z,31.83
2019-03-15T05:33:41.508Z,20.57
2019-03-15T05:36:07.628Z,23.47
2019-03-15T05:38:35.049Z,14.80
2019-03-15T05:41:01.601Z,16.27
2019-03-15T05:43:27.781Z,15.07
2019-03-15T05:45:53.943Z,11.47
2019-03-15T05:48:20.027Z,7.23
2019-03-15T05:50:46.172Z,8.57
2019-03-15T05:53:12.324Z,8.37
2019-03-15T05:55:38.507Z,9.07
2019-03-15T05:58:04.648Z,10.67
2019-03-15T06:00:30.801Z,11.47
2019-03-15T06:02:57.050Z,9.83
2019-03-15T06:05:23.219Z,11.67
2019-03-15T06:07:49.394Z,11.33
2019-03-15T06:10:15.693Z,11.60
2019-03-15T06:12:41.942Z,12.63
2019-03-15T06:15:09.044Z,12.83
2019-03-15T06:17:35.182Z,10.63
2019-03-15T06:20:01.662Z,10.27
2019-03-15T06:22:27.787Z,13.80
2019-03-15T06:24:53.939Z,14.67
2019-03-15T06:27:20.135Z,15.00
2019-03-15T06:29:46.291Z,10.67
2019-03-15T06:32:12.395Z,14.87
2019-03-15T06:34:39.548Z,7.87
2019-03-15T06:37:05.827Z,10.63
2019-03-15T06:39:31.952Z,11.97
2019-03-15T06:41:58.056Z,11.73
2019-03-15T06:44:24.267Z,11.07
2019-03-15T06:46:50.364Z,9.60
2019-03-15T06:49:16.804Z,15.43
2019-03-15T06:51:43.111Z,13.97
2019-03-15T06:54:11.697Z,8.20
2019-03-15T06:56:37.370Z,12.17
2019-03-15T06:59:03.628Z,12.13
2019-03-15T07:01:29.720Z,7.93
2019-03-15T07:03:55.918Z,13.30
2019-03-15T07:06:22.061Z,8.83
2019-03-15T07:08:48.158Z,11.13
2019-03-15T07:11:14.300Z,7.73
2019-03-15T07:13:40.396Z,11.30
2019-03-15T07:16:06.625Z,8.63
2019-03-15T07:18:32.719Z,11.33
2019-03-15T07:20:58.856Z,9.03
2019-03-15T07:23:24.943Z,9.40
2019-03-15T07:25:51.222Z,9.23
2019-03-15T07:28:17.391Z,14.63
2019-03-15T07:30:43.532Z,10.10
2019-03-15T07:33:09.625Z,8.97
2019-03-15T07:35:35.852Z,8.20
2019-03-15T07:38:01.947Z,10.07
2019-03-15T07:40:28.186Z,10.57
2019-03-15T07:42:54.292Z,9.07
2019-03-15T07:45:20.447Z,12.47
2019-03-15T07:47:46.643Z,9.73
2019-03-15T07:50:14.343Z,12.53
2019-03-15T07:52:40.951Z,8.83
2019-03-15T07:55:07.645Z,11.83
2019-03-15T07:57:33.885Z,8.93
2019-03-15T08:00:00.362Z,10.03
2019-03-15T08:02:26.620Z,8.53
2019-03-15T08:04:52.748Z,11.87
2019-03-15T08:07:19.925Z,9.70
2019-03-15T08:09:50.924Z,8.77
2019-03-15T08:12:14.530Z,9.77
2019-03-15T08:14:40.640Z,8.00
2019-03-15T08:17:06.759Z,11.97
2019-03-15T08:19:32.879Z,10.87
2019-03-15T08:21:59.077Z,12.03
2019-03-15T08:24:25.262Z,10.13
2019-03-15T08:26:51.423Z,12.73
2019-03-15T08:29:17.524Z,11.87
2019-03-15T08:31:46.849Z,9.97
2019-03-15T08:34:11.673Z,13.43
2019-03-15T08:36:37.852Z,16.57
2019-03-15T08:39:05.077Z,12.50
2019-03-15T08:41:31.159Z,12.07
2019-03-15T08:43:57.403Z,12.77
2019-03-15T08:46:23.499Z,11.60
2019-03-15T08:48:49.670Z,13.93
2019-03-15T08:51:15.866Z,11.80
2019-03-15T08:53:42.103Z,11.83
2019-03-15T08:56:08.187Z,13.20
2019-03-15T08:58:34.329Z,13.90
2019-03-15T09:01:00.431Z,13.33
2019-03-15T09:03:28.260Z,11.90
2019-03-15T09:05:54.587Z,10.93
2019-03-15T09:08:20.946Z,11.83
2019-03-15T09:10:47.170Z,16.33
2019-03-15T09:13:13.475Z,13.70
2019-03-15T09:15:39.608Z,10.63
2019-03-15T09:18:05.714Z,9.50
2019-03-15T09:20:31.879Z,10.20
2019-03-15T09:22:58.095Z,11.53
2019-03-15T09:25:24.237Z,10.20
2019-03-15T09:27:50.351Z,8.23
2019-03-15T09:30:24.528Z,10.27
2019-03-15T09:32:44.892Z,12.33
2019-03-15T09:35:11.121Z,7.43
2019-03-15T09:37:37.332Z,9.23
2019-03-15T09:40:07.283Z,12.77
2019-03-15T09:42:33.394Z,8.80
2019-03-15T09:44:59.765Z,7.97
2019-03-15T09:47:25.895Z,8.40
2019-03-15T09:49:52.012Z,8.23
2019-03-15T09:52:18.244Z,8.23
2019-03-15T09:54:44.336Z,10.10
2019-03-15T09:57:10.479Z,8.77
2019-03-15T09:59:36.711Z,9.67
2019-03-15T10:02:07.445Z,11.87
2019-03-15T10:04:30.872Z,13.03
2019-03-15T10:06:57.124Z,12.27
2019-03-15T10:09:23.316Z,14.80
2019-03-15T10:11:49.850Z,13.63
2019-03-15T10:14:16.051Z,12.47
2019-03-15T10:16:44.182Z,12.57
2019-03-15T10:19:10.376Z,13.07
2019-03-15T10:21:36.646Z,9.87
2019-03-15T10:24:02.849Z,8.53
2019-03-15T10:26:28.989Z,8.33
2019-03-15T10:28:55.076Z,7.87
2019-03-15T10:31:21.325Z,9.83
2019-03-15T10:33:50.639Z,7.53
2019-03-15T10:36:15.494Z,9.63
2019-03-15T10:38:41.641Z,7.13
2019-03-15T10:41:07.767Z,10.20
2019-03-15T10:43:33.975Z,8.27
2019-03-15T10:46:00.093Z,8.93
2019-03-15T10:48:26.327Z,7.03
2019-03-15T10:50:54.346Z,6.17
2019-03-15T10:53:20.574Z,6.03
2019-03-15T10:55:59.119Z,4.80
2019-03-15T10:58:14.718Z,6.97
2019-03-15T11:00:40.916Z,5.37
2019-03-15T11:03:07.041Z,5.47
2019-03-15T11:05:33.180Z,5.37
2019-03-15T11:07:59.503Z,5.77
2019-03-15T11:10:28.411Z,6.23
2019-03-15T11:12:54.564Z,5.07
2019-03-15T11:15:20.784Z,5.23
2019-03-15T11:17:50.110Z,5.27
2019-03-15T11:20:16.288Z,5.90
2019-03-15T11:22:42.531Z,6.23
2019-03-15T11:25:09.944Z,6.47
2019-03-15T11:27:36.247Z,6.60
2019-03-15T11:30:04.575Z,7.10
2019-03-15T11:32:30.871Z,6.90
2019-03-15T11:34:57.024Z,7.47
2019-03-15T11:37:23.199Z,7.57
2019-03-15T11:39:49.335Z,7.13
2019-03-15T11:42:15.572Z,6.83
2019-03-15T11:44:41.699Z,6.20
2019-03-15T11:47:08.015Z,7.80
2019-03-15T11:49:34.176Z,7.57
2019-03-15T11:52:00.292Z,7.00
2019-03-15T11:54:26.389Z,6.47
2019-03-15T11:56:52.694Z,6.57
2019-03-15T11:59:18.926Z,8.03
2019-03-15T12:01:45.081Z,7.20
2019-03-15T12:04:11.276Z,7.50
2019-03-15T12:06:37.443Z,7.27
2019-03-15T12:09:05.162Z,7.23
2019-03-15T12:11:31.312Z,7.33
2019-03-15T12:13:57.512Z,8.57
2019-03-15T12:16:23.644Z,7.50
2019-03-15T12:18:49.767Z,7.30
2019-03-15T12:21:15.918Z,7.23
2019-03-15T12:23:42.040Z,7.67
2019-03-15T12:26:10.064Z,7.20
2019-03-15T12:28:36.325Z,6.50
2019-03-15T12:31:02.579Z,7.27
2019-03-15T12:33:28.709Z,7.57
2019-03-15T12:35:54.828Z,7.07
2019-03-15T12:38:21.145Z,6.60
2019-03-15T12:40:47.557Z,5.93
2019-03-15T12:43:13.784Z,6.20
2019-03-15T12:45:39.892Z,6.10
2019-03-15T12:48:06.143Z,6.40
2019-03-15T12:50:32.279Z,6.63
2019-03-15T12:52:58.408Z,6.10
2019-03-15T12:55:24.607Z,6.50
2019-03-15T12:57:50.744Z,7.10
2019-03-15T13:00:18.556Z,7.37
2019-03-15T13:02:44.976Z,5.20
2019-03-15T13:05:11.326Z,6.03
2019-03-15T13:07:37.535Z,5.20
2019-03-15T13:10:10.409Z,5.67
2019-03-15T13:12:36.797Z,7.90
2019-03-15T13:15:04.739Z,7.27
2019-03-15T13:17:30.837Z,8.80
2019-03-15T13:19:56.994Z,8.03
2019-03-15T13:22:23.130Z,8.77
2019-03-15T13:24:49.486Z,8.90
2019-03-15T13:27:15.583Z,5.70
2019-03-15T13:29:41.728Z,5.90
2019-03-15T13:32:07.882Z,7.97
2019-03-15T13:34:34.131Z,4.80
2019-03-15T13:37:00.384Z,6.90
2019-03-15T13:39:26.608Z,7.27
2019-03-15T13:41:52.696Z,5.43
2019-03-15T13:44:18.868Z,4.40
2019-03-15T13:46:45.186Z,5.30
2019-03-15T13:49:11.460Z,5.77
2019-03-15T13:51:37.596Z,5.97
2019-03-15T13:54:03.907Z,5.73
2019-03-15T13:56:30.022Z,5.30
2019-03-15T13:58:57.554Z,7.77
2019-03-15T14:01:23.974Z,7.20
2019-03-15T14:03:50.105Z,8.03
2019-03-15T14:06:16.363Z,6.43
2019-03-15T14:08:42.514Z,5.30
2019-03-15T14:11:08.724Z,6.83
2019-03-15T14:13:34.843Z,6.20
2019-03-15T14:16:01.705Z,7.30
2019-03-15T14:18:28.000Z,7.57
2019-03-15T14:20:54.212Z,5.90
2019-03-15T14:23:20.453Z,9.27
2019-03-15T14:25:46.744Z,6.80
2019-03-15T14:28:12.870Z,6.67
2019-03-15T14:30:39.011Z,6.80
2019-03-15T14:33:05.125Z,5.77
2019-03-15T14:35:31.255Z,7.40
2019-03-15T14:37:57.475Z,9.37
2019-03-15T14:40:24.080Z,8.30
2019-03-15T14:42:50.834Z,5.40
2019-03-15T14:45:17.179Z,6.53
2019-03-15T14:47:43.285Z,8.03
2019-03-15T14:50:13.086Z,8.87
2019-03-15T14:52:39.450Z,5.93
2019-03-15T14:55:12.127Z,7.50
2019-03-15T14:57:51.107Z,7.63
2019-03-15T15:00:19.900Z,8.17
2019-03-15T15:02:49.096Z,9.50
2019-03-15T15:05:18.112Z,9.97
2019-03-15T15:07:47.081Z,7.90
2019-03-15T15:10:16.977Z,2.47
2019-03-15T15:12:46.080Z,6.83
2019-03-15T15:15:21.455Z,3.27
2019-03-15T15:17:50.425Z,4.20
2019-03-15T15:20:19.503Z,4.00
2019-03-15T15:22:48.546Z,4.33
2019-03-15T15:25:18.103Z,5.23
2019-03-15T15:27:47.056Z,4.37
2019-03-15T15:30:16.949Z,3.33
2019-03-15T15:32:45.994Z,5.13
2019-03-15T15:35:15.154Z,3.20
2019-03-15T15:37:44.102Z,4.03
2019-03-15T15:40:16.992Z,6.93
2019-03-15T15:42:46.049Z,6.47
2019-03-15T15:45:15.157Z,8.23
2019-03-15T15:47:44.120Z,5.30
2019-03-15T15:50:16.948Z,3.93
2019-03-15T15:52:46.036Z,4.27
2019-03-15T15:55:16.190Z,2.50
2019-03-15T15:57:45.836Z,4.37
2019-03-15T16:00:19.305Z,5.07
2019-03-15T16:02:48.363Z,4.53
2019-03-15T16:05:17.311Z,1.90
2019-03-15T16:07:46.325Z,3.67
2019-03-15T16:10:17.645Z,4.27
2019-03-15T16:12:46.340Z,4.00
2019-03-15T16:15:16.630Z,3.50
2019-03-15T16:17:46.033Z,5.37
2019-03-15T16:20:15.332Z,4.03
2019-03-15T16:22:44.259Z,4.80
2019-03-15T16:25:13.545Z,3.83
2019-03-15T16:27:42.564Z,5.13
2019-03-15T16:30:16.120Z,4.07
2019-03-15T16:32:45.126Z,4.60
2019-03-15T16:35:14.653Z,3.27
2019-03-15T16:37:43.686Z,6.00
2019-03-15T16:40:14.850Z,6.93
2019-03-15T16:42:43.951Z,4.20
2019-03-15T16:45:18.709Z,7.50
2019-03-15T16:47:47.654Z,5.70
2019-03-15T16:50:16.701Z,5.03
2019-03-15T16:52:45.772Z,3.63
2019-03-15T16:55:14.783Z,6.30
2019-03-15T16:57:43.722Z,4.67
2019-03-15T17:00:17.064Z,4.27
2019-03-15T17:02:46.040Z,6.53
2019-03-15T17:05:15.320Z,3.57
2019-03-15T17:07:44.320Z,7.20
2019-03-15T17:10:17.637Z,4.10
2019-03-15T17:12:46.654Z,6.70
2019-03-15T17:15:21.669Z,5.50
2019-03-15T17:17:50.668Z,5.83
2019-03-15T17:20:19.698Z,5.93
2019-03-15T17:22:48.651Z,7.67
2019-03-15T17:25:17.684Z,4.77
2019-03-15T17:27:46.704Z,3.30
2019-03-15T17:30:17.568Z,6.20
2019-03-15T17:32:46.672Z,3.60
2019-03-15T17:35:17.893Z,4.13
2019-03-15T17:37:46.922Z,3.80
2019-03-15T17:40:16.886Z,4.60
2019-03-15T17:42:45.868Z,4.83
2019-03-15T17:45:14.976Z,2.67
2019-03-15T17:47:44.187Z,6.60
2019-03-15T17:50:17.191Z,3.70
2019-03-15T17:52:46.284Z,2.07
2019-03-15T17:55:16.468Z,3.40
2019-03-15T17:57:46.139Z,3.00
2019-03-15T18:00:40.512Z,5.97
2019-03-15T18:03:20.875Z,4.83
2019-03-15T18:05:40.429Z,2.20
2019-03-15T18:08:09.542Z,4.67
2019-03-15T18:10:38.617Z,3.23
2019-03-15T18:13:07.710Z,3.20
2019-03-15T18:15:36.791Z,5.73
2019-03-15T18:18:05.850Z,4.80
2019-03-15T18:20:34.853Z,3.33
2019-03-15T18:23:03.938Z,4.53
2019-03-15T18:25:33.013Z,2.10
2019-03-15T18:28:01.946Z,6.33
2019-03-15T18:30:30.980Z,4.93
2019-03-15T18:32:59.972Z,7.17
2019-03-15T18:35:33.948Z,6.83
2019-03-15T18:37:59.872Z,6.40
2019-03-15T18:40:28.965Z,4.27
2019-03-15T18:42:57.919Z,3.90
2019-03-15T18:45:26.892Z,3.20
2019-03-15T18:47:55.818Z,4.27
2019-03-15T18:50:25.615Z,5.10
2019-03-15T18:52:54.680Z,4.07
2019-03-15T18:55:23.722Z,5.23
2019-03-15T18:57:52.674Z,4.43
2019-03-15T19:00:23.066Z,3.20
2019-03-15T19:02:51.999Z,5.20
2019-03-15T19:05:20.979Z,6.87
2019-03-15T19:07:50.034Z,3.53
2019-03-15T19:10:19.002Z,4.13
2019-03-15T19:12:47.987Z,5.47
2019-03-15T19:15:21.071Z,4.90
2019-03-15T19:17:50.216Z,5.80
2019-03-15T19:20:20.442Z,4.87
2019-03-15T19:22:49.469Z,6.07
2019-03-15T19:25:18.427Z,5.20
2019-03-15T19:27:47.461Z,6.27
2019-03-15T19:30:17.696Z,5.30
2019-03-15T19:32:46.707Z,5.17
2019-03-15T19:35:17.878Z,6.40
2019-03-15T19:37:49.713Z,5.60
2019-03-15T19:40:22.709Z,4.40
2019-03-15T19:42:51.758Z,5.93
2019-03-15T19:45:20.719Z,5.83
2019-03-15T19:47:49.779Z,7.53
2019-03-15T19:50:20.242Z,4.20
2019-03-15T19:52:49.215Z,5.43
2019-03-15T19:55:19.688Z,8.13
2019-03-15T19:57:49.810Z,8.30
2019-03-15T20:00:20.198Z,6.27
2019-03-15T20:02:50.745Z,4.57
2019-03-15T20:05:21.212Z,5.47
2019-03-15T20:07:50.251Z,8.13
2019-03-15T20:10:19.995Z,7.27
2019-03-15T20:12:49.097Z,6.30
2019-03-15T20:15:18.142Z,5.40
2019-03-15T20:17:47.103Z,2.93
2019-03-15T20:20:17.162Z,5.93
2019-03-15T20:22:46.182Z,4.33
2019-03-15T20:25:16.931Z,7.47
2019-03-15T20:27:45.999Z,7.43
2019-03-15T20:30:23.168Z,8.33
2019-03-15T20:32:50.050Z,5.70
2019-03-15T20:35:24.132Z,5.43
2019-03-15T20:37:55.242Z,5.00
2019-03-15T20:40:24.205Z,7.67
2019-03-15T20:42:53.148Z,5.93
2019-03-15T20:45:27.546Z,5.63
2019-03-15T20:47:56.461Z,6.43
2019-03-15T20:50:27.172Z,6.60
2019-03-15T20:53:07.785Z,4.50
2019-03-15T20:55:28.852Z,6.63
2019-03-15T20:57:57.557Z,5.53
2019-03-15T21:00:35.631Z,5.43
2019-03-15T21:02:57.318Z,8.40
2019-03-15T21:05:26.307Z,5.73
2019-03-15T21:07:58.042Z,5.40
2019-03-15T21:10:27.080Z,9.77
2019-03-15T21:12:57.276Z,7.33
2019-03-15T21:15:29.305Z,6.10
2019-03-15T21:17:58.310Z,6.87
2019-03-15T21:20:27.273Z,6.97
2019-03-15T21:22:57.751Z,6.27
2019-03-15T21:25:26.722Z,6.13
2019-03-15T21:27:55.661Z,6.53
2019-03-15T21:30:25.867Z,5.13
2019-03-15T21:32:54.818Z,5.00
2019-03-15T21:35:23.778Z,8.57
2019-03-15T21:37:52.804Z,4.50
2019-03-15T21:40:22.459Z,5.63
2019-03-15T21:42:51.419Z,6.73
2019-03-15T21:45:20.334Z,6.43
2019-03-15T21:47:50.844Z,5.87
2019-03-15T21:50:22.865Z,4.60
2019-03-15T21:52:51.958Z,3.00
2019-03-15T21:55:20.950Z,5.80
2019-03-15T21:57:49.958Z,5.37
2019-03-15T22:00:21.910Z,4.30
2019-03-15T22:02:50.926Z,5.70
2019-03-15T22:05:19.863Z,5.83
2019-03-15T22:07:48.869Z,5.20
2019-03-15T22:10:18.047Z,8.90
2019-03-15T22:12:47.018Z,8.53
2019-03-15T22:15:16.131Z,6.17
2019-03-15T22:17:45.086Z,6.13
2019-03-15T22:20:17.338Z,6.30
2019-03-15T22:22:46.302Z,3.57
2019-03-15T22:25:15.246Z,5.20
2019-03-15T22:27:44.191Z,5.63
2019-03-15T22:30:14.119Z,4.40
2019-03-15T22:32:43.286Z,8.07
2019-03-15T22:35:14.371Z,8.10
2019-03-15T22:37:43.299Z,8.17
2019-03-15T22:40:15.108Z,8.30
2019-03-15T22:42:44.063Z,3.63
2019-03-15T22:45:14.320Z,6.60
2019-03-15T22:47:43.245Z,9.20
2019-03-15T22:50:13.345Z,6.60
2019-03-15T22:52:42.351Z,4.87
2019-03-15T22:55:12.034Z,5.60
2019-03-15T22:57:41.008Z,10.27
2019-03-15T23:00:15.746Z,5.13
2019-03-15T23:02:45.018Z,6.80
2019-03-15T23:05:14.271Z,5.73
2019-03-15T23:07:43.281Z,5.43
2019-03-15T23:10:12.306Z,7.00
2019-03-15T23:12:41.334Z,7.30
2019-03-15T23:15:11.586Z,9.70
2019-03-15T23:17:40.780Z,8.90
2019-03-15T23:20:11.401Z,11.33
2019-03-15T23:22:40.498Z,10.53
2019-03-15T23:25:09.735Z,6.50
2019-03-15T23:27:38.758Z,8.77
2019-03-15T23:30:14.708Z,12.27
2019-03-15T23:32:44.034Z,7.17
2019-03-15T23:35:13.109Z,7.80
2019-03-15T23:37:42.151Z,10.10
2019-03-15T23:40:12.999Z,7.80
2019-03-15T23:42:41.951Z,7.57
2019-03-15T23:45:11.324Z,6.00
2019-03-15T23:47:40.291Z,6.13
2019-03-15T23:50:11.932Z,11.37
2019-03-15T23:52:40.999Z,9.67
2019-03-15T23:55:10.211Z,6.77
2019-03-15T23:57:39.187Z,9.33
